CNN8 weather

Gananoque Airport
Gananoque, Ontario, Canada

Public forecast

Using degrees Celsius for public forecast. Weather courtesy of forecast.io.

METAR (pilot weather report)

Closest report is Kingston Norman Rogers Airport, 18.5 nm (34.3 km) SW. Retrieved 2019/05/27 00:00 UTC (30 minutes ago):

CYGK 270000Z 35007KT 15SM FEW062 BKN220 21/11 A2989 RMK CU1CI5 SLP125 DENSITY ALT 1100FT

TAF (pilot weather forecast)

Closest forecast is Kingston Norman Rogers Airport, 18.5 nm (34.3 km) SW. Retrieved 2019/05/26 20:00 UTC (4 hours ago):

TAF CYGK 261938Z 2620/2703 30010KT P6SM FEW060 BECMG 2623/2701 34007KT RMK NXT FCST WILL BE ISSUED AT 271145Z